sensor_id;sensor_type;location;lat;lon;timestamp;pressure;altitude;pressure_sealevel;temperature;humidity
27304;BME280;14791;52.392;13.092;2023-04-03T00:01:04;102609.27;;;7.59;44.00
27304;BME280;14791;52.392;13.092;2023-04-03T00:03:34;102614.34;;;7.49;44.09
27304;BME280;14791;52.392;13.092;2023-04-03T00:06:04;102616.53;;;7.51;44.05
27304;BME280;14791;52.392;13.092;2023-04-03T00:08:35;102614.27;;;7.52;43.97
27304;BME280;14791;52.392;13.092;2023-04-03T00:11:05;102621.37;;;7.53;43.89
27304;BME280;14791;52.392;13.092;2023-04-03T00:13:35;102620.89;;;7.55;43.87
27304;BME280;14791;52.392;13.092;2023-04-03T00:16:04;102620.91;;;7.53;43.86
27304;BME280;14791;52.392;13.092;2023-04-03T00:18:33;102624.03;;;7.53;43.86
27304;BME280;14791;52.392;13.092;2023-04-03T00:21:02;102624.88;;;7.55;43.83
27304;BME280;14791;52.392;13.092;2023-04-03T00:23:32;102627.54;;;7.55;43.82
27304;BME280;14791;52.392;13.092;2023-04-03T00:26:01;102624.42;;;7.55;43.80
27304;BME280;14791;52.392;13.092;2023-04-03T00:28:30;102624.42;;;7.55;43.75
27304;BME280;14791;52.392;13.092;2023-04-03T00:30:59;102622.70;;;7.53;43.73
27304;BME280;14791;52.392;13.092;2023-04-03T00:33:28;102627.14;;;7.52;43.74
27304;BME280;14791;52.392;13.092;2023-04-03T00:35:57;102628.03;;;7.51;43.74
27304;BME280;14791;52.392;13.092;2023-04-03T00:38:25;102624.91;;;7.52;43.77
27304;BME280;14791;52.392;13.092;2023-04-03T00:40:55;102629.81;;;7.52;43.74
27304;BME280;14791;52.392;13.092;2023-04-03T00:43:25;102620.92;;;7.52;43.74
27304;BME280;14791;52.392;13.092;2023-04-03T00:45:56;102625.83;;;7.51;43.70
27304;BME280;14791;52.392;13.092;2023-04-03T00:48:44;102633.41;;;7.50;43.68
27304;BME280;14791;52.392;13.092;2023-04-03T00:51:06;102627.23;;;7.48;43.68
27304;BME280;14791;52.392;13.092;2023-04-03T00:53:55;102636.16;;;7.43;43.68
27304;BME280;14791;52.392;13.092;2023-04-03T00:56:26;102630.91;;;7.40;43.69
27304;BME280;14791;52.392;13.092;2023-04-03T01:01:38;102637.71;;;7.31;43.77
27304;BME280;14791;52.392;13.092;2023-04-03T01:06:58;102637.33;;;7.27;43.81
27304;BME280;14791;52.392;13.092;2023-04-03T01:09:28;102643.19;;;7.22;43.86
27304;BME280;14791;52.392;13.092;2023-04-03T01:12:28;102640.98;;;7.21;43.85
27304;BME280;14791;52.392;13.092;2023-04-03T01:14:55;102640.55;;;7.20;43.83
27304;BME280;14791;52.392;13.092;2023-04-03T01:17:45;102639.29;;;7.16;43.90
27304;BME280;14791;52.392;13.092;2023-04-03T01:25:49;102642.95;;;7.09;43.96
27304;BME280;14791;52.392;13.092;2023-04-03T01:28:30;102643.87;;;7.08;43.97
27304;BME280;14791;52.392;13.092;2023-04-03T01:31:41;102639.47;;;7.07;44.00
27304;BME280;14791;52.392;13.092;2023-04-03T01:34:03;102640.36;;;7.06;44.03
27304;BME280;14791;52.392;13.092;2023-04-03T01:36:32;102639.10;;;7.01;44.13
27304;BME280;14791;52.392;13.092;2023-04-03T01:39:02;102643.53;;;7.02;44.15
27304;BME280;14791;52.392;13.092;2023-04-03T01:41:31;102646.13;;;7.05;44.12
27304;BME280;14791;52.392;13.092;2023-04-03T01:44:02;102642.56;;;7.06;44.11
27304;BME280;14791;52.392;13.092;2023-04-03T01:46:32;102653.58;;;7.09;44.09
27304;BME280;14791;52.392;13.092;2023-04-03T01:49:01;102646.06;;;7.10;44.10
27304;BME280;14791;52.392;13.092;2023-04-03T01:51:30;102648.72;;;7.10;44.10
27304;BME280;14791;52.392;13.092;2023-04-03T01:54:01;102653.11;;;7.11;44.10
27304;BME280;14791;52.392;13.092;2023-04-03T01:56:29;102650.45;;;7.11;44.09
27304;BME280;14791;52.392;13.092;2023-04-03T01:58:59;102658.89;;;7.10;44.13
27304;BME280;14791;52.392;13.092;2023-04-03T02:01:28;102658.91;;;7.09;44.17
27304;BME280;14791;52.392;13.092;2023-04-03T02:03:57;102656.24;;;7.09;44.14
27304;BME280;14791;52.392;13.092;2023-04-03T02:06:27;102658.03;;;7.08;44.12
27304;BME280;14791;52.392;13.092;2023-04-03T02:08:56;102663.80;;;7.08;44.12
27304;BME280;14791;52.392;13.092;2023-04-03T02:11:25;102666.05;;;7.07;44.12
27304;BME280;14791;52.392;13.092;2023-04-03T02:13:54;102666.05;;;7.07;44.09
27304;BME280;14791;52.392;13.092;2023-04-03T02:16:23;102662.53;;;7.05;44.10
27304;BME280;14791;52.392;13.092;2023-04-03T02:18:51;102670.06;;;7.03;44.10
27304;BME280;14791;52.392;13.092;2023-04-03T02:21:20;102666.99;;;7.02;44.10
27304;BME280;14791;52.392;13.092;2023-04-03T02:23:49;102667.92;;;7.00;44.14
27304;BME280;14791;52.392;13.092;2023-04-03T02:26:19;102671.51;;;6.97;44.17
27304;BME280;14791;52.392;13.092;2023-04-03T02:28:48;102671.98;;;6.95;44.23
27304;BME280;14791;52.392;13.092;2023-04-03T02:31:17;102678.20;;;6.94;44.26
27304;BME280;14791;52.392;13.092;2023-04-03T02:33:47;102674.69;;;6.92;44.30
27304;BME280;14791;52.392;13.092;2023-04-03T02:36:16;102671.13;;;6.92;44.30
27304;BME280;14791;52.392;13.092;2023-04-03T02:38:47;102668.52;;;6.90;44.33
27304;BME280;14791;52.392;13.092;2023-04-03T02:41:16;102678.74;;;6.88;44.35
27304;BME280;14791;52.392;13.092;2023-04-03T02:43:45;102681.86;;;6.87;44.36
27304;BME280;14791;52.392;13.092;2023-04-03T02:46:14;102679.67;;;6.85;44.41
27304;BME280;14791;52.392;13.092;2023-04-03T02:48:43;102681.47;;;6.83;44.46
27304;BME280;14791;52.392;13.092;2023-04-03T02:51:12;102684.13;;;6.81;44.53
27304;BME280;14791;52.392;13.092;2023-04-03T02:53:41;102699.20;;;6.81;44.62
27304;BME280;14791;52.392;13.092;2023-04-03T02:56:11;102704.10;;;6.80;44.62
27304;BME280;14791;52.392;13.092;2023-04-03T02:58:40;102701.00;;;6.79;44.63
27304;BME280;14791;52.392;13.092;2023-04-03T03:01:10;102706.37;;;6.76;44.63
27304;BME280;14791;52.392;13.092;2023-04-03T03:03:40;102703.77;;;6.73;44.68
27304;BME280;14791;52.392;13.092;2023-04-03T03:06:17;102704.70;;;6.69;44.70
27304;BME280;14791;52.392;13.092;2023-04-03T03:08:46;102703.84;;;6.65;44.74
27304;BME280;14791;52.392;13.092;2023-04-03T03:11:15;102707.48;;;6.59;44.78
27304;BME280;14791;52.392;13.092;2023-04-03T03:13:44;102713.72;;;6.55;44.79
27304;BME280;14791;52.392;13.092;2023-04-03T03:16:13;102710.25;;;6.50;44.82
27304;BME280;14791;52.392;13.092;2023-04-03T03:18:42;102709.84;;;6.48;44.87
27304;BME280;14791;52.392;13.092;2023-04-03T03:21:11;102715.20;;;6.45;44.90
27304;BME280;14791;52.392;13.092;2023-04-03T03:23:40;102713.06;;;6.39;44.98
27304;BME280;14791;52.392;13.092;2023-04-03T03:26:10;102714.84;;;6.37;45.03
27304;BME280;14791;52.392;13.092;2023-04-03T03:28:40;102716.19;;;6.36;45.08
27304;BME280;14791;52.392;13.092;2023-04-03T03:31:09;102717.97;;;6.34;45.12
27304;BME280;14791;52.392;13.092;2023-04-03T03:33:39;102724.19;;;6.33;45.08
27304;BME280;14791;52.392;13.092;2023-04-03T03:36:08;102722.00;;;6.31;45.09
27304;BME280;14791;52.392;13.092;2023-04-03T03:38:38;102719.82;;;6.27;45.13
27304;BME280;14791;52.392;13.092;2023-04-03T03:41:07;102714.09;;;6.25;45.14
27304;BME280;14791;52.392;13.092;2023-04-03T03:43:36;102712.41;;;6.21;45.19
27304;BME280;14791;52.392;13.092;2023-04-03T03:46:06;102716.85;;;6.17;45.24
27304;BME280;14791;52.392;13.092;2023-04-03T03:48:35;102718.22;;;6.15;45.28
27304;BME280;14791;52.392;13.092;2023-04-03T03:51:03;102708.53;;;6.11;45.31
27304;BME280;14791;52.392;13.092;2023-04-03T03:53:34;102719.61;;;6.08;45.34
27304;BME280;14791;52.392;13.092;2023-04-03T03:56:05;102714.34;;;6.03;45.39
27304;BME280;14791;52.392;13.092;2023-04-03T03:58:35;102715.30;;;5.99;45.44
27304;BME280;14791;52.392;13.092;2023-04-03T04:01:05;102710.46;;;5.95;45.51
27304;BME280;14791;52.392;13.092;2023-04-03T04:03:36;102717.97;;;5.93;45.57
27304;BME280;14791;52.392;13.092;2023-04-03T04:06:06;102719.76;;;5.91;45.60
27304;BME280;14791;52.392;13.092;2023-04-03T04:08:35;102715.83;;;5.88;45.60
27304;BME280;14791;52.392;13.092;2023-04-03T04:11:05;102715.41;;;5.87;45.64
27304;BME280;14791;52.392;13.092;2023-04-03T04:13:35;102712.77;;;5.84;45.64
27304;BME280;14791;52.392;13.092;2023-04-03T04:16:05;102715.45;;;5.81;45.65
27304;BME280;14791;52.392;13.092;2023-04-03T04:18:34;102715.49;;;5.78;45.69
27304;BME280;14791;52.392;13.092;2023-04-03T04:21:03;102722.59;;;5.74;45.70
27304;BME280;14791;52.392;13.092;2023-04-03T04:23:32;102718.20;;;5.71;45.77
27304;BME280;14791;52.392;13.092;2023-04-03T04:26:02;102716.03;;;5.68;45.79
27304;BME280;14791;52.392;13.092;2023-04-03T04:28:32;102721.34;;;5.65;45.86
27304;BME280;14791;52.392;13.092;2023-04-03T04:31:02;102732.86;;;5.62;45.95
27304;BME280;14791;52.392;13.092;2023-04-03T04:33:31;102723.16;;;5.60;45.96
27304;BME280;14791;52.392;13.092;2023-04-03T04:36:02;102724.94;;;5.59;46.00
27304;BME280;14791;52.392;13.092;2023-04-03T04:38:31;102723.20;;;5.58;46.02
27304;BME280;14791;52.392;13.092;2023-04-03T04:41:01;102728.95;;;5.56;46.05
27304;BME280;14791;52.392;13.092;2023-04-03T04:43:30;102731.16;;;5.55;46.08
27304;BME280;14791;52.392;13.092;2023-04-03T04:46:03;102736.03;;;5.56;46.12
27304;BME280;14791;52.392;13.092;2023-04-03T04:48:35;102735.59;;;5.54;46.15
27304;BME280;14791;52.392;13.092;2023-04-03T04:51:05;102741.34;;;5.54;46.21
27304;BME280;14791;52.392;13.092;2023-04-03T04:53:37;102738.69;;;5.54;46.22
27304;BME280;14791;52.392;13.092;2023-04-03T04:56:07;102745.31;;;5.54;46.26
27304;BME280;14791;52.392;13.092;2023-04-03T04:58:37;102746.19;;;5.54;46.31
27304;BME280;14791;52.392;13.092;2023-04-03T05:01:08;102744.41;;;5.55;46.36
27304;BME280;14791;52.392;13.092;2023-04-03T05:03:39;102749.71;;;5.57;46.42
27304;BME280;14791;52.392;13.092;2023-04-03T05:06:08;102747.06;;;5.58;46.47
27304;BME280;14791;52.392;13.092;2023-04-03T05:08:37;102751.45;;;5.59;46.51
27304;BME280;14791;52.392;13.092;2023-04-03T05:11:08;102751.00;;;5.61;46.53
27304;BME280;14791;52.392;13.092;2023-04-03T05:13:39;102749.22;;;5.63;46.56
27304;BME280;14791;52.392;13.092;2023-04-03T05:16:08;102749.19;;;5.66;46.63
27304;BME280;14791;52.392;13.092;2023-04-03T05:18:37;102753.58;;;5.70;46.66
27304;BME280;14791;52.392;13.092;2023-04-03T05:21:07;102753.95;;;5.74;46.66
27304;BME280;14791;52.392;13.092;2023-04-03T05:23:36;102759.25;;;5.78;46.67
27304;BME280;14791;52.392;13.092;2023-04-03T05:26:06;102758.76;;;5.83;46.64
27304;BME280;14791;52.392;13.092;2023-04-03T05:28:36;102754.74;;;5.86;46.61
27304;BME280;14791;52.392;13.092;2023-04-03T05:31:05;102752.50;;;5.90;46.60
27304;BME280;14791;52.392;13.092;2023-04-03T05:33:36;102751.59;;;5.92;46.62
27304;BME280;14791;52.392;13.092;2023-04-03T05:36:08;102763.97;;;5.95;46.65
27304;BME280;14791;52.392;13.092;2023-04-03T05:38:39;102759.08;;;5.98;46.66
27304;BME280;14791;52.392;13.092;2023-04-03T05:41:08;102761.69;;;6.02;46.67
27304;BME280;14791;52.392;13.092;2023-04-03T05:43:37;102762.97;;;6.05;46.66
27304;BME280;14791;52.392;13.092;2023-04-03T05:46:16;102775.33;;;6.09;46.64
27304;BME280;14791;52.392;13.092;2023-04-03T05:48:43;102769.56;;;6.11;46.70
27304;BME280;14791;52.392;13.092;2023-04-03T05:51:17;102771.30;;;6.12;46.72
27304;BME280;14791;52.392;13.092;2023-04-03T05:53:47;102776.14;;;6.16;46.74
27304;BME280;14791;52.392;13.092;2023-04-03T05:56:17;102775.23;;;6.18;46.76
27304;BME280;14791;52.392;13.092;2023-04-03T05:58:46;102778.70;;;6.24;46.81
27304;BME280;14791;52.392;13.092;2023-04-03T06:01:15;102773.81;;;6.28;46.83
27304;BME280;14791;52.392;13.092;2023-04-03T06:03:45;102775.05;;;6.34;46.86
27304;BME280;14791;52.392;13.092;2023-04-03T06:06:14;102776.28;;;6.42;46.89
27304;BME280;14791;52.392;13.092;2023-04-03T06:08:43;102785.51;;;6.48;46.89
27304;BME280;14791;52.392;13.092;2023-04-03T06:11:13;102787.19;;;6.56;46.85
27304;BME280;14791;52.392;13.092;2023-04-03T06:13:43;102794.18;;;6.64;46.81
27304;BME280;14791;52.392;13.092;2023-04-03T06:16:13;102791.43;;;6.70;46.75
27304;BME280;14791;52.392;13.092;2023-04-03T06:18:43;102796.69;;;6.74;46.71
27304;BME280;14791;52.392;13.092;2023-04-03T06:21:12;102793.97;;;6.79;46.70
27304;BME280;14791;52.392;13.092;2023-04-03T06:23:41;102790.80;;;6.84;46.70
27304;BME280;14791;52.392;13.092;2023-04-03T06:26:10;102795.60;;;6.89;46.66
27304;BME280;14791;52.392;13.092;2023-04-03T06:28:39;102792.87;;;6.95;46.65
27304;BME280;14791;52.392;13.092;2023-04-03T06:31:08;102789.70;;;7.00;46.59
27304;BME280;14791;52.392;13.092;2023-04-03T06:33:37;102788.71;;;7.08;46.53
27304;BME280;14791;52.392;13.092;2023-04-03T06:36:06;102797.94;;;7.14;46.50
27304;BME280;14791;52.392;13.092;2023-04-03T06:38:35;102799.63;;;7.18;46.48
27304;BME280;14791;52.392;13.092;2023-04-03T06:41:04;102798.22;;;7.24;46.42
27304;BME280;14791;52.392;13.092;2023-04-03T06:43:33;102802.09;;;7.30;46.41
27304;BME280;14791;52.392;13.092;2023-04-03T06:46:03;102800.69;;;7.36;46.40
27304;BME280;14791;52.392;13.092;2023-04-03T06:48:32;102807.67;;;7.43;46.37
27304;BME280;14791;52.392;13.092;2023-04-03T06:51:01;102809.75;;;7.52;46.23
27304;BME280;14791;52.392;13.092;2023-04-03T06:53:30;102818.05;;;7.59;46.18
27304;BME280;14791;52.392;13.092;2023-04-03T06:55:59;102818.38;;;7.66;46.13
27304;BME280;14791;52.392;13.092;2023-04-03T06:58:28;102818.70;;;7.73;46.06
27304;BME280;14791;52.392;13.092;2023-04-03T07:00:57;102814.56;;;7.82;46.00
27304;BME280;14791;52.392;13.092;2023-04-03T07:03:25;102821.98;;;7.91;45.87
27304;BME280;14791;52.392;13.092;2023-04-03T07:05:55;102820.45;;;8.01;45.76
27304;BME280;14791;52.392;13.092;2023-04-03T07:08:24;102827.81;;;8.11;45.62
27304;BME280;14791;52.392;13.092;2023-04-03T07:10:53;102825.44;;;8.21;45.47
27304;BME280;14791;52.392;13.092;2023-04-03T07:13:23;102830.61;;;8.29;45.21
27304;BME280;14791;52.392;13.092;2023-04-03T07:15:52;102831.79;;;8.37;45.00
27304;BME280;14791;52.392;13.092;2023-04-03T07:18:21;102833.87;;;8.45;45.01
27304;BME280;14791;52.392;13.092;2023-04-03T07:20:50;102844.42;;;8.51;44.90
27304;BME280;14791;52.392;13.092;2023-04-03T07:23:19;102838.06;;;8.58;44.78
27304;BME280;14791;52.392;13.092;2023-04-03T07:25:50;102841.49;;;8.65;44.40
27304;BME280;14791;52.392;13.092;2023-04-03T07:28:20;102840.48;;;8.70;44.13
27304;BME280;14791;52.392;13.092;2023-04-03T07:30:54;102842.20;;;8.73;44.00
27304;BME280;14791;52.392;13.092;2023-04-03T07:33:23;102845.70;;;8.77;43.94
27304;BME280;14791;52.392;13.092;2023-04-03T07:35:52;102838.50;;;8.80;43.88
27304;BME280;14791;52.392;13.092;2023-04-03T07:38:21;102840.59;;;8.87;43.82
27304;BME280;14791;52.392;13.092;2023-04-03T07:40:51;102846.22;;;8.94;43.72
27304;BME280;14791;52.392;13.092;2023-04-03T07:43:21;102850.98;;;8.99;43.60
27304;BME280;14791;52.392;13.092;2023-04-03T07:45:50;102842.88;;;9.05;43.55
27304;BME280;14791;52.392;13.092;2023-04-03T07:48:23;102848.49;;;9.12;43.63
27304;BME280;14791;52.392;13.092;2023-04-03T07:50:51;102843.00;;;9.19;43.53
27304;BME280;14791;52.392;13.092;2023-04-03T07:53:20;102845.06;;;9.27;43.38
27304;BME280;14791;52.392;13.092;2023-04-03T07:55:49;102841.23;;;9.39;43.46
27304;BME280;14791;52.392;13.092;2023-04-03T07:58:20;102846.39;;;9.46;43.36
27304;BME280;14791;52.392;13.092;2023-04-03T08:00:49;102847.42;;;9.58;43.21
27304;BME280;14791;52.392;13.092;2023-04-03T08:03:18;102843.61;;;9.69;43.01
27304;BME280;14791;52.392;13.092;2023-04-03T08:05:49;102851.40;;;9.78;42.99
27304;BME280;14791;52.392;13.092;2023-04-03T08:08:21;102850.25;;;9.88;42.85
27304;BME280;14791;52.392;13.092;2023-04-03T08:10:52;102846.04;;;9.96;42.32
27304;BME280;14791;52.392;13.092;2023-04-03T08:13:21;102843.25;;;10.00;41.93
27304;BME280;14791;52.392;13.092;2023-04-03T08:15:51;102848.10;;;10.03;41.82
27304;BME280;14791;52.392;13.092;2023-04-03T08:18:20;102855.23;;;10.02;41.55
27304;BME280;14791;52.392;13.092;2023-04-03T08:20:51;102856.60;;;10.00;41.59
27304;BME280;14791;52.392;13.092;2023-04-03T08:23:20;102848.68;;;9.97;41.56
27304;BME280;14791;52.392;13.092;2023-04-03T08:25:49;102853.62;;;9.96;41.37
27304;BME280;14791;52.392;13.092;2023-04-03T08:28:18;102848.77;;;9.94;41.09
27304;BME280;14791;52.392;13.092;2023-04-03T08:30:47;102843.89;;;9.94;41.21
27304;BME280;14791;52.392;13.092;2023-04-03T08:33:16;102851.93;;;9.92;40.89
27304;BME280;14791;52.392;13.092;2023-04-03T08:35:45;102845.72;;;9.92;40.95
27304;BME280;14791;52.392;13.092;2023-04-03T08:38:14;102846.59;;;9.92;40.86
27304;BME280;14791;52.392;13.092;2023-04-03T08:40:43;102845.75;;;9.90;40.94
27304;BME280;14791;52.392;13.092;2023-04-03T08:43:30;102836.90;;;9.88;40.56
27304;BME280;14791;52.392;13.092;2023-04-03T08:45:52;102838.67;;;9.89;40.67
27304;BME280;14791;52.392;13.092;2023-04-03T08:48:31;102841.74;;;9.90;41.13
27304;BME280;14791;52.392;13.092;2023-04-03T08:51:14;102844.30;;;9.95;41.16
27304;BME280;14791;52.392;13.092;2023-04-03T08:53:55;102833.79;;;10.05;41.55
27304;BME280;14791;52.392;13.092;2023-04-03T08:56:18;102834.27;;;10.21;42.09
27304;BME280;14791;52.392;13.092;2023-04-03T08:58:57;102833.38;;;10.38;41.45
27304;BME280;14791;52.392;13.092;2023-04-03T09:01:26;102839.13;;;10.56;41.34
27304;BME280;14791;52.392;13.092;2023-04-03T09:03:55;102838.23;;;10.72;41.26
27304;BME280;14791;52.392;13.092;2023-04-03T09:06:27;102837.88;;;10.84;41.02
27304;BME280;14791;52.392;13.092;2023-04-03T09:09:30;102836.23;;;10.95;40.67
27304;BME280;14791;52.392;13.092;2023-04-03T09:12:00;102839.65;;;11.00;40.58
27304;BME280;14791;52.392;13.092;2023-04-03T09:17:09;102835.87;;;11.07;40.35
27304;BME280;14791;52.392;13.092;2023-04-03T09:19:56;102844.22;;;11.11;40.20
27304;BME280;14791;52.392;13.092;2023-04-03T09:22:28;102831.65;;;11.13;40.13
27304;BME280;14791;52.392;13.092;2023-04-03T09:25:02;102831.65;;;11.13;40.13
27304;BME280;14791;52.392;13.092;2023-04-03T09:27:30;102837.22;;;11.20;39.87
27304;BME280;14791;52.392;13.092;2023-04-03T09:29:59;102830.39;;;11.25;39.95
27304;BME280;14791;52.392;13.092;2023-04-03T09:32:34;102843.56;;;11.33;39.78
27304;BME280;14791;52.392;13.092;2023-04-03T09:35:10;102836.66;;;11.39;39.85
27304;BME280;14791;52.392;13.092;2023-04-03T09:37:43;102839.55;;;11.46;39.73
27304;BME280;14791;52.392;13.092;2023-04-03T09:40:35;102843.82;;;11.52;39.57
27304;BME280;14791;52.392;13.092;2023-04-03T09:43:23;102842.70;;;11.59;39.44
27304;BME280;14791;52.392;13.092;2023-04-03T09:45:54;102842.70;;;11.59;39.44
27304;BME280;14791;52.392;13.092;2023-04-03T09:48:25;102839.83;;;11.65;39.56
27304;BME280;14791;52.392;13.092;2023-04-03T09:50:57;102839.10;;;11.73;39.45
27304;BME280;14791;52.392;13.092;2023-04-03T09:53:35;102828.20;;;11.79;39.42
27304;BME280;14791;52.392;13.092;2023-04-03T09:56:20;102842.91;;;11.94;39.41
27304;BME280;14791;52.392;13.092;2023-04-03T10:01:29;102831.33;;;12.07;39.02
27304;BME280;14791;52.392;13.092;2023-04-03T10:04:13;102831.17;;;12.11;38.86
27304;BME280;14791;52.392;13.092;2023-04-03T10:06:48;102832.39;;;12.15;38.72
27304;BME280;14791;52.392;13.092;2023-04-03T10:09:24;102830.98;;;12.16;38.58
27304;BME280;14791;52.392;13.092;2023-04-03T10:12:04;102826.01;;;12.19;38.28
27304;BME280;14791;52.392;13.092;2023-04-03T10:14:36;102825.53;;;12.19;38.17
27304;BME280;14791;52.392;13.092;2023-04-03T10:17:15;102820.22;;;12.18;38.16
27304;BME280;14791;52.392;13.092;2023-04-03T10:22:22;102814.34;;;12.20;37.97
27304;BME280;14791;52.392;13.092;2023-04-03T10:25:17;102809.73;;;12.23;38.09
27304;BME280;14791;52.392;13.092;2023-04-03T10:27:59;102805.67;;;12.25;38.09
27304;BME280;14791;52.392;13.092;2023-04-03T10:36:12;102810.08;;;12.39;38.23
27304;BME280;14791;52.392;13.092;2023-04-03T10:38:46;102802.86;;;12.41;37.84
27304;BME280;14791;52.392;13.092;2023-04-03T10:44:27;102799.14;;;12.45;37.66
27304;BME280;14791;52.392;13.092;2023-04-03T10:47:07;102787.69;;;12.40;37.51
27304;BME280;14791;52.392;13.092;2023-04-03T10:52:42;102792.13;;;12.41;37.61
27304;BME280;14791;52.392;13.092;2023-04-03T10:55:30;102788.51;;;12.42;37.70
27304;BME280;14791;52.392;13.092;2023-04-03T10:57:57;102786.66;;;12.44;37.61
27304;BME280;14791;52.392;13.092;2023-04-03T11:00:37;102771.91;;;12.44;37.76
27304;BME280;14791;52.392;13.092;2023-04-03T11:03:21;102777.14;;;12.47;37.52
27304;BME280;14791;52.392;13.092;2023-04-03T11:05:49;102769.88;;;12.51;37.59
27304;BME280;14791;52.392;13.092;2023-04-03T11:08:33;102770.06;;;12.58;37.60
27304;BME280;14791;52.392;13.092;2023-04-03T11:11:03;102767.42;;;12.68;37.54
27304;BME280;14791;52.392;13.092;2023-04-03T11:13:38;102760.72;;;12.80;37.66
27304;BME280;14791;52.392;13.092;2023-04-03T11:16:07;102766.28;;;12.97;37.93
27304;BME280;14791;52.392;13.092;2023-04-03T11:18:59;102768.24;;;13.16;37.65
27304;BME280;14791;52.392;13.092;2023-04-03T11:24:05;102755.23;;;13.51;37.37
27304;BME280;14791;52.392;13.092;2023-04-03T11:26:38;102756.33;;;13.67;36.99
27304;BME280;14791;52.392;13.092;2023-04-03T11:29:12;102753.03;;;13.81;36.68
27304;BME280;14791;52.392;13.092;2023-04-03T11:34:44;102757.94;;;14.02;36.48
27304;BME280;14791;52.392;13.092;2023-04-03T11:40:06;102742.20;;;14.23;36.77
27304;BME280;14791;52.392;13.092;2023-04-03T11:42:39;102753.94;;;14.31;36.27
27304;BME280;14791;52.392;13.092;2023-04-03T11:47:55;102749.64;;;14.37;35.59
27304;BME280;14791;52.392;13.092;2023-04-03T11:50:46;102749.31;;;14.35;35.43
27304;BME280;14791;52.392;13.092;2023-04-03T11:55:52;102744.00;;;14.33;35.54
27304;BME280;14791;52.392;13.092;2023-04-03T11:58:34;102746.09;;;14.37;35.36
27304;BME280;14791;52.392;13.092;2023-04-03T12:01:11;102749.91;;;14.41;35.56
27304;BME280;14791;52.392;13.092;2023-04-03T12:08:52;102751.11;;;14.44;35.21
27304;BME280;14791;52.392;13.092;2023-04-03T12:11:26;102739.55;;;14.42;35.07
27304;BME280;14791;52.392;13.092;2023-04-03T12:16:33;102742.98;;;14.36;34.89
27304;BME280;14791;52.392;13.092;2023-04-03T12:24:32;102740.58;;;14.19;34.81
27304;BME280;14791;52.392;13.092;2023-04-03T12:27:04;102739.92;;;14.14;34.73
27304;BME280;14791;52.392;13.092;2023-04-03T12:29:37;102740.34;;;14.15;34.75
27304;BME280;14791;52.392;13.092;2023-04-03T12:32:23;102742.55;;;14.16;34.65
27304;BME280;14791;52.392;13.092;2023-04-03T12:41:04;102731.36;;;13.96;34.62
27304;BME280;14791;52.392;13.092;2023-04-03T12:46:14;102726.25;;;13.79;34.84
27304;BME280;14791;52.392;13.092;2023-04-03T12:48:49;102718.20;;;13.79;34.88
27304;BME280;14791;52.392;13.092;2023-04-03T12:54:00;102727.45;;;13.82;34.65
27304;BME280;14791;52.392;13.092;2023-04-03T12:56:32;102724.38;;;13.81;34.66
27304;BME280;14791;52.392;13.092;2023-04-03T12:59:29;102728.32;;;13.83;34.65
27304;BME280;14791;52.392;13.092;2023-04-03T13:02:02;102723.48;;;13.81;34.67
27304;BME280;14791;52.392;13.092;2023-04-03T13:04:28;102719.92;;;13.80;34.83
27304;BME280;14791;52.392;13.092;2023-04-03T13:06:58;102718.92;;;13.83;35.14
27304;BME280;14791;52.392;13.092;2023-04-03T13:09:31;102717.38;;;13.88;34.96
27304;BME280;14791;52.392;13.092;2023-04-03T13:12:14;102725.56;;;13.95;34.93
27304;BME280;14791;52.392;13.092;2023-04-03T13:14:39;102716.44;;;13.99;34.84
27304;BME280;14791;52.392;13.092;2023-04-03T13:17:16;102723.88;;;14.02;34.77
27304;BME280;14791;52.392;13.092;2023-04-03T13:19:46;102717.97;;;14.04;34.68
27304;BME280;14791;52.392;13.092;2023-04-03T13:25:06;102720.30;;;14.12;34.61
27304;BME280;14791;52.392;13.092;2023-04-03T13:27:35;102726.20;;;14.10;34.84
27304;BME280;14791;52.392;13.092;2023-04-03T13:30:06;102727.50;;;14.12;34.63
27304;BME280;14791;52.392;13.092;2023-04-03T13:32:36;102715.88;;;14.11;34.38
27304;BME280;14791;52.392;13.092;2023-04-03T13:35:31;102716.80;;;14.10;34.23
27304;BME280;14791;52.392;13.092;2023-04-03T13:37:37;102718.72;;;14.08;34.17
27304;BME280;14791;52.392;13.092;2023-04-03T13:40:11;102715.34;;;14.03;34.26
27304;BME280;14791;52.392;13.092;2023-04-03T13:42:41;102711.78;;;14.02;34.10
27304;BME280;14791;52.392;13.092;2023-04-03T13:45:22;102715.91;;;14.01;34.00
27304;BME280;14791;52.392;13.092;2023-04-03T13:48:05;102710.53;;;14.01;33.95
27304;BME280;14791;52.392;13.092;2023-04-03T13:50:25;102711.59;;;13.97;33.95
27304;BME280;14791;52.392;13.092;2023-04-03T13:53:08;102700.52;;;13.94;33.91
27304;BME280;14791;52.392;13.092;2023-04-03T13:55:33;102705.09;;;13.92;34.01
27304;BME280;14791;52.392;13.092;2023-04-03T14:00:49;102705.28;;;13.88;33.90
27304;BME280;14791;52.392;13.092;2023-04-03T14:03:28;102699.78;;;13.80;33.87
27304;BME280;14791;52.392;13.092;2023-04-03T14:05:56;102700.99;;;13.73;34.06
27304;BME280;14791;52.392;13.092;2023-04-03T14:08:25;102695.91;;;13.67;34.06
27304;BME280;14791;52.392;13.092;2023-04-03T14:10:55;102691.52;;;13.65;34.04
27304;BME280;14791;52.392;13.092;2023-04-03T14:13:24;102701.00;;;13.63;34.12
27304;BME280;14791;52.392;13.092;2023-04-03T14:15:53;102701.53;;;13.61;34.10
27304;BME280;14791;52.392;13.092;2023-04-03T14:18:22;102697.22;;;13.57;34.09
27304;BME280;14791;52.392;13.092;2023-04-03T14:20:51;102698.23;;;13.54;34.06
27304;BME280;14791;52.392;13.092;2023-04-03T14:23:20;102693.05;;;13.50;34.02